»·PEaware :: UAL2299 KSAN-KDEN

UAL2299 :: KSAN-KDEN

FLIGHT INFORMATION

Flight Status: Arrived
Operator:
United Airlines
More flights by this operator :: More flights under this callsign
Pilot: Chris H. (15401)
Aircraft: BOEING 737-800
(B738)
More flights by this aircraft type
Origin: KSAN San Diego Intl-Lindbergh
United States
Destination: KDEN Denver Intl
United States
More flights between these airports :: More routes between these airports
Route: +ZZOOO2 MTBAL AVRRY EED J236 TBC OURAY LDORA2
File this flight plan on PilotEdge
Remarks: RMK / POWERED BY SIMBRIEF
Altitude:
(Current/Filed)
39,000ft
Speed:
(Current/Filed)
463kts
Departed: 09-Oct-18 07:54 PM
Arrived: 09-Oct-18 09:42 PM
Distance/Time
Traveled:
740nm/1:48
Distance/Time
To Go:
Arrived

Flight Plot

Page will automatically refresh every two minutes.

Flight plan parsing failed; only flown route is shown


Map Options




Map Legend


Flown Route
Filed Route
Departure Airport
Arrival Airport
Navaid (VOR, NDB)
Fix

Horizontal Profiles

Position Reports

Time Latitude Longitude Heading Altitude Ground
Speed
09-Oct-18 19:35 32.734820 -117.203990 195 23ft 0kts
09-Oct-18 19:36 32.734820 -117.203990 195 23ft 0kts
09-Oct-18 19:37 32.734820 -117.203990 195 23ft 0kts
09-Oct-18 19:38 32.734820 -117.203990 195 23ft 0kts
09-Oct-18 19:39 32.734820 -117.203990 195 23ft 0kts
09-Oct-18 19:40 32.734820 -117.203990 195 23ft 0kts
09-Oct-18 19:41 32.734820 -117.203990 195 23ft 0kts
09-Oct-18 19:42 32.734820 -117.203990 195 23ft 0kts
09-Oct-18 19:43 32.734820 -117.203990 195 23ft 0kts
09-Oct-18 19:44 32.734820 -117.203990 195 23ft 0kts
09-Oct-18 19:45 32.735235 -117.203855 195 23ft 0kts
09-Oct-18 19:46 32.735235 -117.203855 195 23ft 0kts
09-Oct-18 19:47 32.735233 -117.203856 195 23ft 0kts
09-Oct-18 19:48 32.735230 -117.203857 195 23ft 0kts
09-Oct-18 19:49 32.734926 -117.203473 86 23ft 8kts
09-Oct-18 19:50 32.734673 -117.198310 106 23ft 29kts
09-Oct-18 19:51 32.733180 -117.192122 100 23ft 24kts
09-Oct-18 19:52 32.730997 -117.182759 104 23ft 32kts
09-Oct-18 19:53 32.729626 -117.176470 68 23ft 0kts
09-Oct-18 19:54 32.729627 -117.176467 68 23ft 0kts
09-Oct-18 19:55 32.730229 -117.175709 295 23ft 5kts
09-Oct-18 19:56 32.737129 -117.204062 286 569ft 179kts
09-Oct-18 19:57 32.751531 -117.263614 284 3490ft 228kts
09-Oct-18 19:58 32.720223 -117.324302 189 6228ft 268kts
09-Oct-18 19:59 32.663140 -117.279710 137 9211ft 292kts
09-Oct-18 20:00 32.639300 -117.188609 67 11484ft 341kts
09-Oct-18 20:01 32.708453 -117.097599 42 12667ft 399kts
09-Oct-18 20:02 32.789162 -117.003220 41 14939ft 414kts
09-Oct-18 20:03 32.872292 -116.905883 40 16992ft 426kts
09-Oct-18 20:04 32.958327 -116.805476 40 18833ft 438kts
09-Oct-18 20:05 33.046038 -116.702668 40 20758ft 440kts
09-Oct-18 20:06 33.129179 -116.604851 39 24010ft 414kts
09-Oct-18 20:07 33.212341 -116.506703 39 25788ft 425kts
09-Oct-18 20:08 33.297468 -116.405943 39 27410ft 436kts
09-Oct-18 20:09 33.370738 -116.318988 39 28704ft 443kts
09-Oct-18 20:10 33.444167 -116.231897 39 29849ft 450kts
09-Oct-18 20:11 33.533686 -116.124970 39 31060ft 459kts
09-Oct-18 20:12 33.614696 -116.003556 59 32118ft 481kts
09-Oct-18 20:13 33.663848 -115.852146 64 33330ft 486kts
09-Oct-18 20:14 33.704786 -115.721604 64 34440ft 485kts
09-Oct-18 20:15 33.755339 -115.579944 51 34774ft 487kts
09-Oct-18 20:16 33.838615 -115.477075 35 34782ft 473kts
09-Oct-18 20:17 33.931410 -115.378858 35 34785ft 474kts
09-Oct-18 20:18 34.030091 -115.273366 34 34785ft 473kts
09-Oct-18 20:19 34.123719 -115.173079 34 34784ft 473kts
09-Oct-18 20:20 34.221907 -115.067276 35 34781ft 473kts
09-Oct-18 20:21 34.314302 -114.967316 35 34779ft 473kts
09-Oct-18 20:22 34.411697 -114.861597 35 34778ft 475kts
09-Oct-18 20:23 34.509980 -114.754554 35 34769ft 475kts
09-Oct-18 20:24 34.608194 -114.647483 35 34763ft 475kts
09-Oct-18 20:25 34.706120 -114.539926 35 34761ft 475kts
09-Oct-18 20:26 34.791687 -114.414953 54 34764ft 492kts
09-Oct-18 20:27 34.856905 -114.267835 55 34776ft 494kts
09-Oct-18 20:28 34.921565 -114.120138 56 34795ft 494kts
09-Oct-18 20:29 34.986611 -113.972357 54 34823ft 496kts
09-Oct-18 20:30 35.051838 -113.823055 55 34864ft 499kts
09-Oct-18 20:31 35.116814 -113.673441 55 34879ft 499kts
09-Oct-18 20:32 35.179966 -113.527324 55 34885ft 499kts
09-Oct-18 20:33 35.238307 -113.391757 55 34886ft 499kts
09-Oct-18 20:34 35.302737 -113.241396 55 34911ft 499kts
09-Oct-18 20:35 35.367236 -113.090195 55 34932ft 500kts
09-Oct-18 20:36 35.431388 -112.939126 55 34957ft 500kts
09-Oct-18 20:37 35.495522 -112.787411 55 34978ft 501kts
09-Oct-18 20:38 35.559530 -112.635299 55 34989ft 502kts
09-Oct-18 20:39 35.623467 -112.482658 55 34994ft 502kts
09-Oct-18 20:40 35.687316 -112.329523 55 35000ft 503kts
09-Oct-18 20:41 35.750983 -112.176109 55 35001ft 504kts
09-Oct-18 20:42 35.814595 -112.022114 55 35000ft 504kts
09-Oct-18 20:43 35.878022 -111.867842 55 34998ft 505kts
09-Oct-18 20:44 35.930575 -111.739464 55 34995ft 505kts
09-Oct-18 20:45 36.004512 -111.558553 55 34970ft 505kts
09-Oct-18 20:46 36.067653 -111.402560 55 34950ft 508kts
09-Oct-18 20:47 36.120248 -111.271990 55 34939ft 508kts
09-Oct-18 20:48 36.191223 -111.122741 50 34926ft 503kts
09-Oct-18 20:49 36.274992 -110.949463 51 34916ft 503kts
09-Oct-18 20:50 36.346973 -110.800085 51 34912ft 502kts
09-Oct-18 20:51 36.406311 -110.676225 51 34908ft 503kts
09-Oct-18 20:52 36.489419 -110.501538 51 34915ft 503kts
09-Oct-18 20:53 36.548455 -110.376793 51 34923ft 503kts
09-Oct-18 20:54 36.619203 -110.226652 51 34933ft 503kts
09-Oct-18 20:55 36.689798 -110.076148 51 34945ft 503kts
09-Oct-18 20:56 36.760402 -109.924940 53 34956ft 507kts
09-Oct-18 20:57 36.831004 -109.773036 53 34955ft 507kts
09-Oct-18 20:58 36.870316 -109.688152 53 34960ft 507kts
09-Oct-18 20:59 36.940743 -109.535538 54 34969ft 507kts
09-Oct-18 21:00 37.011056 -109.382465 54 34969ft 507kts
09-Oct-18 21:01 37.081196 -109.229058 54 34969ft 507kts
09-Oct-18 21:02 37.151018 -109.075628 54 34967ft 506kts
09-Oct-18 21:03 37.220428 -108.922392 54 34964ft 506kts
09-Oct-18 21:04 37.289718 -108.768699 55 34961ft 505kts
09-Oct-18 21:05 37.358844 -108.614646 55 34960ft 505kts
09-Oct-18 21:06 37.427617 -108.460651 55 34962ft 506kts
09-Oct-18 21:07 37.496370 -108.305967 56 34975ft 505kts
09-Oct-18 21:08 37.564765 -108.151352 56 34989ft 505kts
09-Oct-18 21:09 37.632896 -107.996595 56 35001ft 505kts
09-Oct-18 21:10 37.712222 -107.815466 57 35015ft 505kts
09-Oct-18 21:11 37.768827 -107.685589 57 35022ft 506kts
09-Oct-18 21:12 37.823303 -107.560098 57 35021ft 505kts
09-Oct-18 21:13 37.902102 -107.377704 57 35016ft 506kts
09-Oct-18 21:14 37.958266 -107.247063 58 35023ft 506kts
09-Oct-18 21:15 38.016889 -107.110133 60 35022ft 505kts
09-Oct-18 21:16 38.083571 -106.953668 60 35014ft 504kts
09-Oct-18 21:17 38.150273 -106.796916 60 35027ft 505kts
09-Oct-18 21:18 38.216766 -106.639644 58 35038ft 505kts
09-Oct-18 21:19 38.306604 -106.504580 40 35057ft 500kts
09-Oct-18 21:20 38.407056 -106.381399 42 35096ft 502kts
09-Oct-18 21:21 38.507560 -106.256511 41 35133ft 503kts
09-Oct-18 21:22 38.607173 -106.131831 41 33275ft 500kts
09-Oct-18 21:23 38.706136 -106.007813 41 29999ft 494kts
09-Oct-18 21:24 38.801731 -105.887083 44 27628ft 474kts
09-Oct-18 21:25 38.894114 -105.769896 44 25323ft 458kts
09-Oct-18 21:26 38.983025 -105.657050 44 23094ft 443kts
09-Oct-18 21:27 39.068838 -105.547148 44 20904ft 429kts
09-Oct-18 21:28 39.151694 -105.440767 43 19206ft 403kts
09-Oct-18 21:29 39.227624 -105.343480 43 18369ft 366kts
09-Oct-18 21:30 39.271870 -105.233437 76 17564ft 340kts
09-Oct-18 21:31 39.293297 -105.115886 76 16345ft 332kts
09-Oct-18 21:32 39.314454 -105.001654 76 15313ft 317kts
09-Oct-18 21:33 39.333942 -104.897382 75 15079ft 280kts
09-Oct-18 21:34 39.356114 -104.804039 70 14274ft 268kts
09-Oct-18 21:35 39.382189 -104.714712 66 13314ft 262kts
09-Oct-18 21:36 39.447238 -104.663184 358 13003ft 244kts
09-Oct-18 21:37 39.506189 -104.664072 358 11747ft 254kts
09-Oct-18 21:38 39.574930 -104.663562 359 10403ft 239kts
09-Oct-18 21:39 39.641439 -104.662790 0 9117ft 237kts
09-Oct-18 21:40 39.706612 -104.662025 2 7843ft 223kts
09-Oct-18 21:41 39.763698 -104.661327 1 6738ft 187kts
09-Oct-18 21:42 39.810524 -104.660759 2 5841ft 155kts
09-Oct-18 21:43 39.845294 -104.660324 1 5439ft 58kts
09-Oct-18 21:44 39.851415 -104.662405 1 5439ft 0kts
09-Oct-18 21:45 39.856004 -104.662390 2 5439ft 17kts
09-Oct-18 21:46 39.856730 -104.663999 268 5439ft 6kts
09-Oct-18 21:47 39.856592 -104.668134 269 5439ft 15kts
09-Oct-18 21:48 39.858005 -104.669425 0 5439ft 0kts
09-Oct-18 21:49 39.858005 -104.669425 0 5439ft 0kts
09-Oct-18 21:50 39.858005 -104.669425 0 5439ft 0kts
09-Oct-18 21:51 39.858005 -104.669425 0 5439ft 0kts

Navigation Log

Ident Type
Flight plan parsing failed, navigation log unavailable